CheckWX is a tool to help pilots better visualize weather data.  It is not intended as a substitute for an official pre-flight weather briefing.

09:26:15 UTC

CYPL METAR
Pickle Lake Airport
Pickle Lake, Canada
Current

7 hours ago

CYPL 200200Z 20008KT 15SM FEW200 M14/M19 A3003 RMK CI2 LAST STFD OBS/NEXT 201100 UTC SLP214
Observed
Feb-20 @ 02:00 UTC
Wind
  • 200° at 8 KTS
Visibility
24,140 meters
Flight Rules
VFR
Cloud Levels
  • Few at 20,000' AGL
Temperature
-14°C / 7°F
Dewpoint
-19°C / -2°F
Humidity
66%
Altimeter
30.03" Hg
Pressure
1021.4 hPa
Previous

8 hours ago

CYPL 200100Z 20008KT 15SM FEW200 M14/M19 A3005 RMK CI2 SLP222
Observed
Feb-20 @ 01:00 UTC
Wind
  • 200° at 8 KTS
Visibility
24,140 meters
Flight Rules
VFR
Cloud Levels
  • Few at 20,000' AGL
Temperature
-14°C / 7°F
Dewpoint
-19°C / -2°F
Humidity
66%
Altimeter
30.05" Hg
Pressure
1022.2 hPa
Previous

9 hours ago

CYPL 200000Z 21011G17KT 15SM DRSN FEW140 SCT210 M13/M19 A3006 RMK AC1CI2 SLP227
Observed
Feb-20 @ 00:00 UTC
Wind
  • 210° at 11 KTS
  • Gusting to 17 KTS
Visibility
24,140 meters
Flight Rules
VFR
Conditions
Low drifting Snow
Cloud Levels
  • Few at 14,000' AGL
  • Scattered at 21,000' AGL
Temperature
-13°C / 9°F
Dewpoint
-19°C / -2°F
Humidity
61%
Altimeter
30.06" Hg
Pressure
1022.7 hPa